Time;durP1;ratioP1;P1;durP2;ratioP2;P2;SDS_P1;SDS_P2;PMS_P1;PMS_P2;Temp;Humidity;BMP_temperature;BMP_pressure;BME280_temperature;BME280_humidity;BME280_pressure;Samples;Min_cycle;Max_cycle;Signal;HPM_P1;HPM_P2
2021/09/24 00:02:02;;;;;;;;;28.33;27.00;;;;;16.74;66.41;101731.25;5018430;28;46614;-77
2021/09/24 00:04:28;;;;;;;;;29.67;26.33;;;;;16.76;66.06;101745.44;5018506;28;45443;-78
2021/09/24 00:06:53;;;;;;;;;23.00;23.00;;;;;16.76;66.31;101749.91;5015296;28;45187;-77
2021/09/24 00:09:18;;;;;;;;;36.33;29.00;;;;;16.80;66.60;101750.78;5015902;28;45160;-78
2021/09/24 00:11:44;;;;;;;;;31.00;27.67;;;;;16.83;66.38;101746.38;5016303;28;58905;-77
2021/09/24 00:14:09;;;;;;;;;26.33;24.67;;;;;16.86;66.23;101738.34;5018106;28;45357;-78
2021/09/24 00:16:35;;;;;;;;;26.33;23.33;;;;;16.92;66.61;101746.34;5013787;28;46013;-77
2021/09/24 00:19:00;;;;;;;;;28.00;28.00;;;;;16.96;66.33;101750.78;5018532;28;45519;-78
2021/09/24 00:21:26;;;;;;;;;33.33;25.00;;;;;17.00;66.17;101743.69;5015312;28;53487;-78
2021/09/24 00:23:51;;;;;;;;;27.00;24.00;;;;;16.99;66.30;101734.78;5010247;28;45411;-78
2021/09/24 00:26:17;;;;;;;;;27.00;23.67;;;;;17.03;66.33;101738.31;5005058;28;45369;-77
2021/09/24 00:28:42;;;;;;;;;23.67;22.33;;;;;17.05;66.40;101727.66;5000510;28;45346;-77
2021/09/24 00:31:07;;;;;;;;;22.00;18.67;;;;;17.07;66.37;101729.44;5007494;28;59718;-77
2021/09/24 00:33:33;;;;;;;;;23.00;21.67;;;;;17.08;66.60;101733.88;5009016;28;52998;-77
2021/09/24 00:35:58;;;;;;;;;21.67;19.67;;;;;17.08;66.34;101716.97;5016489;28;45672;-78
2021/09/24 00:38:24;;;;;;;;;17.67;16.00;;;;;17.11;66.45;101714.31;4994542;28;52050;-77
2021/09/24 00:40:50;;;;;;;;;20.00;19.33;;;;;17.15;66.26;101727.66;5003937;28;60404;-77
2021/09/24 00:43:15;;;;;;;;;20.00;16.33;;;;;17.10;66.71;101717.84;5000792;28;45285;-77
2021/09/24 00:45:41;;;;;;;;;24.00;16.33;;;;;17.16;66.74;101718.75;5000349;28;56880;-77
2021/09/24 00:48:06;;;;;;;;;18.33;15.33;;;;;17.20;66.73;101714.28;4998247;28;54541;-77
2021/09/24 00:50:31;;;;;;;;;18.00;14.33;;;;;17.23;66.72;101715.16;4995150;28;45627;-76
2021/09/24 00:52:57;;;;;;;;;18.67;17.67;;;;;17.26;66.81;101698.28;4998475;28;45362;-76
2021/09/24 00:55:22;;;;;;;;;17.00;15.67;;;;;17.28;66.70;101702.69;4994102;28;45367;-77
2021/09/24 00:57:48;;;;;;;;;21.67;17.00;;;;;17.35;66.65;101703.56;5000144;28;45984;-77
2021/09/24 01:00:14;;;;;;;;;21.00;17.00;;;;;17.38;66.61;101697.34;5012134;28;57033;-77
2021/09/24 01:02:39;;;;;;;;;17.33;17.33;;;;;17.39;66.63;101694.66;5011916;28;45353;-76
2021/09/24 01:05:08;;;;;;;;;17.00;15.33;;;;;17.42;66.75;101688.44;5010522;28;45544;-76
2021/09/24 01:07:35;;;;;;;;;19.67;16.00;;;;;17.41;66.58;101683.97;4996669;28;45734;-77
2021/09/24 01:10:00;;;;;;;;;16.00;15.00;;;;;17.47;66.55;101682.19;5007564;28;46773;-77
2021/09/24 01:12:26;;;;;;;;;13.67;13.00;;;;;17.45;66.57;101686.63;5003146;28;45369;-77
2021/09/24 01:14:59;;;;;;;;;15.00;14.00;;;;;17.48;66.46;101685.75;4968173;28;45524;-78
2021/09/24 01:17:24;;;;;;;;;15.00;15.00;;;;;17.48;66.48;101685.75;5002116;28;45563;-78
2021/09/24 01:19:49;;;;;;;;;14.67;14.67;;;;;17.48;66.68;101681.28;5000979;28;60912;-78
2021/09/24 01:22:15;;;;;;;;;17.00;14.00;;;;;17.47;66.82;101679.50;4998410;28;55149;-76
2021/09/24 01:24:40;;;;;;;;;16.00;14.33;;;;;17.41;66.88;101666.16;4983268;28;52134;-77
2021/09/24 01:27:05;;;;;;;;;15.67;14.33;;;;;17.46;66.74;101669.69;5016581;28;48549;-78
2021/09/24 01:29:31;;;;;;;;;15.67;14.00;;;;;17.48;66.69;101680.41;5013510;28;47242;-77
2021/09/24 01:31:56;;;;;;;;;14.67;14.00;;;;;17.49;66.67;101677.72;5013288;28;55381;-76
2021/09/24 01:34:22;;;;;;;;;14.00;13.33;;;;;17.50;66.81;101678.59;5012402;28;45219;-77
2021/09/24 01:36:47;;;;;;;;;12.67;11.33;;;;;17.53;66.65;101676.81;5017038;28;45325;-78
2021/09/24 01:39:13;;;;;;;;;14.67;11.67;;;;;17.52;66.79;101677.72;5012323;28;53478;-76
2021/09/24 01:41:42;;;;;;;;;13.00;10.67;;;;;17.57;66.67;101683.00;4987492;28;51430;-78
2021/09/24 01:44:07;;;;;;;;;10.33;9.00;;;;;17.54;66.88;101670.56;5003713;28;45396;-77
2021/09/24 01:46:40;;;;;;;;;11.67;10.33;;;;;17.57;66.97;101672.31;5001715;28;45378;-77
2021/09/24 01:49:06;;;;;;;;;10.00;8.67;;;;;17.59;66.83;101669.66;5003593;28;46519;-77
2021/09/24 01:51:32;;;;;;;;;11.33;8.67;;;;;17.60;66.93;101674.09;5007601;28;45441;-78
2021/09/24 01:53:58;;;;;;;;;12.00;9.00;;;;;17.61;66.97;101671.41;5001570;28;45389;-77
2021/09/24 01:56:23;;;;;;;;;11.67;9.00;;;;;17.63;67.06;101680.34;4990733;28;47147;-77
2021/09/24 01:58:48;;;;;;;;;11.33;9.33;;;;;17.62;67.29;101673.19;5003385;28;46885;-78
2021/09/24 02:01:14;;;;;;;;;15.00;10.33;;;;;17.65;66.76;101675.88;5007878;28;45320;-77
2021/09/24 02:03:39;;;;;;;;;11.67;10.00;;;;;17.65;67.21;101670.53;5005076;28;52020;-77
2021/09/24 02:06:05;;;;;;;;;16.00;11.00;;;;;17.66;67.17;101677.63;5014202;28;53258;-77
2021/09/24 02:08:30;;;;;;;;;11.00;11.00;;;;;17.67;67.00;101674.06;5009660;28;46142;-77
2021/09/24 02:10:55;;;;;;;;;9.00;7.67;;;;;17.67;67.13;101674.06;5016021;28;45357;-77
2021/09/24 02:13:21;;;;;;;;;10.67;8.67;;;;;17.69;67.04;101685.66;5006239;28;51017;-76
2021/09/24 02:15:46;;;;;;;;;8.00;6.00;;;;;17.66;66.96;101671.41;5006581;28;45460;-76
2021/09/24 02:18:12;;;;;;;;;7.67;7.67;;;;;17.70;67.20;101683.84;5004047;28;55637;-77
2021/09/24 02:20:37;;;;;;;;;8.00;8.00;;;;;17.68;67.26;101678.50;5002541;28;53013;-76
2021/09/24 02:23:02;;;;;;;;;9.67;8.33;;;;;17.65;67.28;101680.31;4968631;28;51269;-77
2021/09/24 02:25:28;;;;;;;;;9.00;8.00;;;;;17.66;67.15;101682.09;4999713;28;45494;-77
2021/09/24 02:27:53;;;;;;;;;7.00;7.00;;;;;17.69;67.42;101679.41;5005336;28;46601;-78
2021/09/24 02:30:19;;;;;;;;;8.67;7.00;;;;;17.71;67.46;101672.28;5003220;28;45468;-77
2021/09/24 02:32:44;;;;;;;;;11.33;8.67;;;;;17.71;67.47;101659.81;5008127;28;50154;-78
2021/09/24 02:35:10;;;;;;;;;11.67;8.00;;;;;17.71;67.61;101665.16;5015202;28;52316;-76
2021/09/24 02:37:35;;;;;;;;;11.00;8.00;;;;;17.76;67.31;101667.81;5012331;28;46282;-77
2021/09/24 02:40:00;;;;;;;;;8.33;8.33;;;;;17.76;67.39;101659.81;5005267;28;45302;-77
2021/09/24 02:42:26;;;;;;;;;10.00;8.33;;;;;17.79;67.51;101670.50;5004118;28;45716;-78
2021/09/24 02:44:51;;;;;;;;;11.00;7.00;;;;;17.76;67.28;101658.03;5001300;28;45550;-78
2021/09/24 02:47:17;;;;;;;;;8.67;7.67;;;;;17.80;67.36;101664.25;5013636;28;46547;-77
2021/09/24 02:49:44;;;;;;;;;12.33;9.33;;;;;17.79;67.38;101654.47;5013569;28;57785;-77
2021/09/24 02:52:09;;;;;;;;;11.33;8.67;;;;;17.80;67.41;101654.44;5004167;28;45342;-77
2021/09/24 02:54:35;;;;;;;;;10.00;9.00;;;;;17.85;67.49;101658.88;4981258;28;50441;-77
2021/09/24 02:57:00;;;;;;;;;11.00;9.67;;;;;17.86;67.43;101664.22;5012039;28;46403;-77
2021/09/24 02:59:26;;;;;;;;;9.00;9.00;;;;;17.85;67.27;101658.88;5016036;28;55922;-77
2021/09/24 03:01:54;;;;;;;;;10.67;8.00;;;;;17.83;67.60;101652.66;5013630;28;52141;-78
2021/09/24 03:04:20;;;;;;;;;12.00;9.67;;;;;17.88;67.31;101657.06;5013975;28;45547;-77
2021/09/24 03:06:45;;;;;;;;;8.67;8.00;;;;;17.88;67.41;101651.72;5014788;28;47282;-77
2021/09/24 03:09:10;;;;;;;;;7.33;7.00;;;;;17.90;67.64;101659.75;5014420;28;58598;-78
2021/09/24 03:11:36;;;;;;;;;8.33;8.33;;;;;17.90;67.59;101659.75;5015278;28;48812;-77
2021/09/24 03:14:01;;;;;;;;;9.33;9.00;;;;;17.90;67.27;101660.63;5010397;28;45506;-78
2021/09/24 03:16:27;;;;;;;;;10.00;9.00;;;;;17.91;67.48;101659.72;4992283;28;45689;-77
2021/09/24 03:18:52;;;;;;;;;11.00;9.00;;;;;17.89;67.37;101652.59;5005265;28;55404;-76
2021/09/24 03:21:18;;;;;;;;;13.00;9.00;;;;;17.91;67.77;101653.50;5007741;28;45821;-78
2021/09/24 03:23:43;;;;;;;;;10.33;8.00;;;;;17.89;67.53;101647.25;5003656;28;45353;-76
2021/09/24 03:26:08;;;;;;;;;11.33;8.33;;;;;17.92;67.51;101649.94;5001560;28;45231;-76
2021/09/24 03:28:34;;;;;;;;;10.67;7.67;;;;;17.90;67.72;101639.25;4982792;28;45261;-77
2021/09/24 03:30:59;;;;;;;;;13.00;8.00;;;;;17.96;67.43;101643.69;4993327;28;52216;-77
2021/09/24 03:33:25;;;;;;;;;11.67;9.33;;;;;17.97;67.58;101637.44;5014080;28;45523;-76
2021/09/24 03:35:50;;;;;;;;;9.33;7.33;;;;;17.97;67.78;101629.41;5018676;28;57739;-78
2021/09/24 03:38:15;;;;;;;;;10.00;8.00;;;;;17.98;67.76;101633.84;5011566;28;53921;-77
2021/09/24 03:40:41;;;;;;;;;8.33;7.00;;;;;17.98;67.58;101633.84;5007735;28;45877;-76
2021/09/24 03:43:06;;;;;;;;;7.67;6.67;;;;;17.99;67.87;101632.94;5004679;28;45575;-77
2021/09/24 03:45:32;;;;;;;;;9.00;8.00;;;;;17.99;67.70;101633.84;5006122;28;59854;-77
2021/09/24 03:47:57;;;;;;;;;11.00;8.00;;;;;18.00;67.68;101632.03;5001850;28;45401;-78
2021/09/24 03:50:24;;;;;;;;;9.33;8.33;;;;;18.02;67.73;101623.13;5013843;28;51530;-78
2021/09/24 03:52:51;;;;;;;;;7.33;6.00;;;;;18.02;67.78;101631.16;5008557;28;45214;-78
2021/09/24 03:55:16;;;;;;;;;7.67;7.67;;;;;18.04;67.57;101625.78;5001561;28;47477;-76
2021/09/24 03:57:41;;;;;;;;;8.67;7.67;;;;;18.06;67.73;101626.69;5004552;28;58209;-78
2021/09/24 04:00:07;;;;;;;;;5.00;4.00;;;;;18.06;67.73;101618.66;5017911;28;47728;-76
2021/09/24 04:02:33;;;;;;;;;6.00;6.00;;;;;18.05;67.69;101628.44;5017359;28;45472;-77
2021/09/24 04:04:58;;;;;;;;;10.00;7.00;;;;;18.07;67.67;101628.44;5015118;28;54366;-78
2021/09/24 04:07:23;;;;;;;;;8.67;7.33;;;;;18.09;67.87;101626.66;5017006;28;45300;-77
2021/09/24 04:09:49;;;;;;;;;7.33;6.67;;;;;18.11;67.85;101623.94;5014188;28;54284;-78
2021/09/24 04:12:14;;;;;;;;;8.00;7.33;;;;;18.12;67.72;101628.44;5012892;28;45409;-76
2021/09/24 04:14:40;;;;;;;;;6.00;5.67;;;;;18.08;67.60;101622.19;5005074;28;58416;-77
2021/09/24 04:17:05;;;;;;;;;5.00;5.00;;;;;18.12;67.75;101626.63;4994326;28;49416;-77
2021/09/24 04:19:30;;;;;;;;;6.33;6.33;;;;;18.13;68.02;101632.88;5008196;28;56717;-75
2021/09/24 04:21:56;;;;;;;;;4.00;4.00;;;;;18.14;67.90;101635.50;5002946;28;49315;-77
2021/09/24 04:24:21;;;;;;;;;6.33;5.00;;;;;18.14;68.12;101629.28;5004359;28;57042;-77
2021/09/24 04:26:47;;;;;;;;;5.33;5.33;;;;;18.14;68.05;101632.84;5000393;28;45547;-77
2021/09/24 04:29:12;;;;;;;;;6.33;4.00;;;;;18.15;68.23;101633.72;5004241;28;45378;-77
2021/09/24 04:31:37;;;;;;;;;6.00;5.00;;;;;18.16;68.14;101630.16;5011921;28;53916;-77
2021/09/24 04:34:03;;;;;;;;;4.67;4.67;;;;;18.16;68.33;101633.72;5012956;28;46242;-78
2021/09/24 04:36:28;;;;;;;;;6.67;6.00;;;;;18.18;67.89;101628.38;5008125;28;45439;-77
2021/09/24 04:38:55;;;;;;;;;7.67;5.33;;;;;18.18;68.14;101634.59;5008480;28;45505;-76
2021/09/24 04:41:21;;;;;;;;;6.00;4.33;;;;;18.19;68.13;101636.38;5009673;28;45716;-77
2021/09/24 04:43:46;;;;;;;;;5.00;5.00;;;;;18.19;68.20;101631.03;5001018;28;45533;-78
2021/09/24 04:46:12;;;;;;;;;5.00;5.00;;;;;18.20;67.86;101629.22;5015339;28;59229;-78
2021/09/24 04:48:37;;;;;;;;;5.67;5.00;;;;;18.19;68.11;101639.03;5013438;28;45424;-76
2021/09/24 04:51:03;;;;;;;;;5.00;5.00;;;;;18.20;68.07;101637.25;5003777;28;51128;-77
2021/09/24 04:53:29;;;;;;;;;7.33;5.33;;;;;18.19;67.96;101631.03;5002990;28;46273;-79
2021/09/24 04:55:54;;;;;;;;;7.33;6.00;;;;;18.17;68.08;101627.50;4999460;28;45426;-76
2021/09/24 04:58:19;;;;;;;;;5.00;5.00;;;;;18.21;68.23;101631.88;4998964;28;49555;-77
2021/09/24 05:00:45;;;;;;;;;7.00;7.00;;;;;18.22;68.09;101625.66;5015739;28;55836;-76
2021/09/24 05:03:11;;;;;;;;;7.67;7.67;;;;;18.20;68.00;101621.22;5010262;28;47336;-77
2021/09/24 05:05:36;;;;;;;;;9.67;7.00;;;;;18.23;68.06;101624.75;5012825;28;46797;-77
2021/09/24 05:08:02;;;;;;;;;7.00;6.33;;;;;18.24;68.00;101628.31;5013896;28;50203;-77
2021/09/24 05:10:27;;;;;;;;;7.00;6.33;;;;;18.24;68.13;101628.31;5016417;28;45483;-77
2021/09/24 05:12:52;;;;;;;;;6.33;5.00;;;;;18.23;68.08;101623.88;5016152;28;58027;-78
2021/09/24 05:15:18;;;;;;;;;4.33;4.33;;;;;18.23;67.90;101624.75;5011647;28;45408;-78
2021/09/24 05:17:43;;;;;;;;;5.00;5.00;;;;;18.27;68.05;101617.63;5014597;28;45767;-77
2021/09/24 05:20:09;;;;;;;;;6.00;4.33;;;;;18.26;68.00;101618.50;5007217;28;45449;-78
2021/09/24 05:22:34;;;;;;;;;6.00;6.00;;;;;18.28;68.22;101619.38;5012917;28;46516;-76
2021/09/24 05:25:00;;;;;;;;;10.00;7.33;;;;;18.26;68.15;101616.69;5006525;28;54690;-78
2021/09/24 05:27:25;;;;;;;;;10.00;6.67;;;;;18.24;68.02;101613.16;5016508;28;45507;-77
2021/09/24 05:29:51;;;;;;;;;10.67;6.33;;;;;18.26;68.12;101619.38;4995695;28;52119;-79
2021/09/24 05:32:17;;;;;;;;;10.33;9.00;;;;;18.28;68.30;101616.72;5011992;28;45845;-77
2021/09/24 05:34:42;;;;;;;;;9.00;8.00;;;;;18.30;68.25;101622.91;5013921;28;45700;-79
2021/09/24 05:37:08;;;;;;;;;12.67;9.00;;;;;18.26;68.19;101616.69;4992413;28;57305;-77
2021/09/24 05:39:34;;;;;;;;;9.00;6.67;;;;;18.27;67.98;101617.63;4998885;28;45840;-78
2021/09/24 05:42:00;;;;;;;;;9.00;9.00;;;;;18.30;68.17;101621.13;4984664;28;47426;-80
2021/09/24 05:44:26;;;;;;;;;8.33;6.67;;;;;18.31;68.30;101616.66;5006486;28;45567;-77
2021/09/24 05:46:51;;;;;;;;;12.00;9.33;;;;;18.31;68.16;101617.56;4999791;28;45452;-77
2021/09/24 05:49:17;;;;;;;;;10.00;10.00;;;;;18.31;68.23;101614.88;5004885;28;46249;-77
2021/09/24 05:51:42;;;;;;;;;11.00;8.67;;;;;18.33;68.32;101622.91;4983568;28;50058;-77
2021/09/24 05:54:07;;;;;;;;;9.33;9.33;;;;;18.30;68.31;101607.75;5000712;28;45442;-77
2021/09/24 05:56:33;;;;;;;;;10.33;9.67;;;;;18.33;68.28;101620.22;5002968;28;46511;-77
2021/09/24 05:58:58;;;;;;;;;12.67;9.67;;;;;18.35;68.24;101621.09;5008338;28;45719;-78
2021/09/24 06:01:24;;;;;;;;;7.00;6.00;;;;;18.35;68.08;101609.53;5014119;28;46561;-78
2021/09/24 06:03:50;;;;;;;;;7.00;6.00;;;;;18.35;68.13;101609.53;5014954;28;45419;-77
2021/09/24 06:06:15;;;;;;;;;10.33;9.00;;;;;18.36;68.03;101611.28;5011484;28;45615;-78
2021/09/24 06:08:41;;;;;;;;;9.67;7.00;;;;;18.35;68.29;101615.75;4997209;28;45393;-77
2021/09/24 06:11:07;;;;;;;;;7.33;7.33;;;;;18.35;68.14;101626.44;5011713;28;47736;-78
2021/09/24 06:13:32;;;;;;;;;12.67;8.00;;;;;18.31;68.81;101619.34;5001267;28;45558;-79
2021/09/24 06:15:57;;;;;;;;;10.33;7.00;;;;;18.21;69.41;101626.53;5007507;28;45473;-75
2021/09/24 06:18:23;;;;;;;;;13.67;9.00;;;;;18.15;69.23;101629.25;5001275;28;45528;-78
2021/09/24 06:20:48;;;;;;;;;10.33;7.33;;;;;18.12;69.67;101629.31;5005581;28;45592;-77
2021/09/24 06:23:14;;;;;;;;;8.33;7.00;;;;;18.02;69.72;101627.59;5001381;28;45843;-78
2021/09/24 06:25:39;;;;;;;;;11.67;7.00;;;;;17.99;69.42;101627.59;5005629;28;45471;-77
2021/09/24 06:28:05;;;;;;;;;7.33;7.33;;;;;17.97;69.89;101622.28;5006906;28;45414;-77
2021/09/24 06:30:30;;;;;;;;;8.33;7.00;;;;;17.94;70.01;101618.72;5004760;28;46442;-80
2021/09/24 06:32:56;;;;;;;;;9.67;8.00;;;;;17.93;70.78;101627.66;5001280;28;45581;-77
2021/09/24 06:35:21;;;;;;;;;9.00;6.67;;;;;17.88;71.00;101618.78;5009762;28;45590;-76
2021/09/24 06:37:47;;;;;;;;;11.67;9.00;;;;;17.81;71.17;101617.94;5010483;28;45668;-75
2021/09/24 06:40:12;;;;;;;;;13.00;11.00;;;;;17.72;71.15;101612.59;5003719;28;53108;-75
2021/09/24 06:42:38;;;;;;;;;12.67;8.67;;;;;17.70;70.71;101615.28;4999823;28;45417;-77
2021/09/24 06:45:08;;;;;;;;;11.00;8.33;;;;;17.68;71.04;101616.19;5001444;28;45441;-76
2021/09/24 06:47:33;;;;;;;;;11.00;8.33;;;;;17.71;71.06;101627.75;5002435;28;45883;-79
2021/09/24 06:49:59;;;;;;;;;10.67;8.67;;;;;17.76;70.93;101623.31;5003562;28;46702;-77
2021/09/24 06:52:24;;;;;;;;;11.67;9.00;;;;;17.82;70.80;101624.16;5000592;28;45487;-78
2021/09/24 06:54:50;;;;;;;;;10.67;10.00;;;;;17.84;70.53;101625.03;5002355;28;45522;-77
2021/09/24 06:57:15;;;;;;;;;12.00;10.33;;;;;17.80;70.24;101622.41;4997961;28;45492;-78
2021/09/24 06:59:41;;;;;;;;;14.00;8.67;;;;;17.85;70.45;101618.81;5003516;28;47413;-78
2021/09/24 07:02:06;;;;;;;;;12.00;8.00;;;;;17.88;70.40;101626.78;5004516;28;45520;-76
2021/09/24 07:04:32;;;;;;;;;8.33;8.00;;;;;17.93;70.45;101628.53;5000621;28;45357;-76
2021/09/24 07:06:57;;;;;;;;;10.00;9.00;;;;;17.97;70.62;101621.41;5002738;28;45567;-75
2021/09/24 07:09:23;;;;;;;;;12.33;9.00;;;;;18.01;70.29;101625.81;4999993;28;50024;-75
2021/09/24 07:11:48;;;;;;;;;16.00;12.00;;;;;18.06;69.97;101626.69;5003020;28;45481;-79
2021/09/24 07:14:15;;;;;;;;;11.33;10.00;;;;;18.06;70.03;101624.00;5005751;28;45600;-75
2021/09/24 07:16:41;;;;;;;;;13.33;10.00;;;;;17.98;69.73;101605.34;4988210;28;45631;-77
2021/09/24 07:19:06;;;;;;;;;9.00;9.00;;;;;18.08;69.69;101621.31;5003625;28;46276;-76
2021/09/24 07:21:32;;;;;;;;;14.33;10.00;;;;;18.08;69.80;101626.66;5005907;28;45420;-77
2021/09/24 07:23:58;;;;;;;;;12.33;9.33;;;;;18.06;69.97;101621.34;4987228;28;45424;-76
2021/09/24 07:29:05;;;;;;;;;12.00;11.00;;;;;18.02;69.69;101611.56;5031358;22;45564;-77
2021/09/24 07:31:30;;;;;;;;;8.00;8.00;;;;;18.06;69.35;101630.25;5005010;28;45543;-79
2021/09/24 07:33:56;;;;;;;;;11.00;10.67;;;;;18.09;69.21;101623.97;5014946;28;45523;-75
2021/09/24 07:36:22;;;;;;;;;14.00;11.33;;;;;18.15;68.94;101612.34;5014605;28;45605;-77
2021/09/24 07:38:48;;;;;;;;;11.00;10.00;;;;;18.16;68.95;101616.78;5009234;28;47121;-75
2021/09/24 07:41:14;;;;;;;;;15.00;11.33;;;;;18.19;69.19;101617.66;4988593;28;45514;-75
2021/09/24 07:43:39;;;;;;;;;11.33;10.00;;;;;18.23;69.15;101611.41;4989185;28;45890;-76
2021/09/24 07:46:05;;;;;;;;;13.33;10.33;;;;;18.20;68.79;101602.50;5001616;28;45382;-75
2021/09/24 07:48:30;;;;;;;;;10.00;10.00;;;;;18.21;69.02;101602.47;5002990;28;45438;-75
2021/09/24 07:50:57;;;;;;;;;12.00;11.00;;;;;18.23;69.03;101611.41;5002747;28;45557;-76
2021/09/24 07:53:22;;;;;;;;;17.67;12.00;;;;;18.21;68.73;101607.81;5006264;28;45519;-77
2021/09/24 07:55:48;;;;;;;;;13.33;12.00;;;;;18.18;69.16;101607.88;5005966;28;45647;-77
2021/09/24 07:58:13;;;;;;;;;11.00;11.00;;;;;18.15;69.11;101602.53;5009352;28;45497;-75
2021/09/24 08:00:39;;;;;;;;;15.67;12.33;;;;;18.17;69.33;101607.91;5007969;28;45543;-76
2021/09/24 08:03:04;;;;;;;;;15.33;12.33;;;;;18.13;68.46;101614.16;5016293;28;45480;-78
2021/09/24 08:05:33;;;;;;;;;14.67;12.00;;;;;18.13;68.73;101614.16;5001298;28;47041;-76
2021/09/24 08:07:58;;;;;;;;;13.33;12.00;;;;;18.12;68.96;101607.03;5008739;28;46307;-76
2021/09/24 08:10:28;;;;;;;;;11.00;11.00;;;;;18.20;68.56;101616.75;5010943;28;46442;-78
2021/09/24 08:12:54;;;;;;;;;12.00;11.67;;;;;18.27;68.11;101618.50;5008199;28;45744;-75
2021/09/24 08:15:19;;;;;;;;;19.33;15.67;;;;;18.37;68.40;101621.06;5002926;28;45421;-76
2021/09/24 08:17:45;;;;;;;;;12.33;11.00;;;;;18.45;68.40;101617.44;5003300;28;47598;-75
2021/09/24 08:20:11;;;;;;;;;12.33;10.33;;;;;18.58;68.11;101629.78;4992922;28;45544;-75
2021/09/24 08:22:39;;;;;;;;;14.00;13.67;;;;;18.64;67.60;101626.16;5007546;28;45392;-76
2021/09/24 08:25:10;;;;;;;;;10.67;10.33;;;;;18.65;67.22;101630.66;5006180;28;45635;-76
2021/09/24 08:27:35;;;;;;;;;10.67;10.67;;;;;18.72;66.96;101637.72;4985605;28;47510;-77
2021/09/24 08:30:02;;;;;;;;;12.00;9.67;;;;;18.79;66.47;101623.38;5005269;28;45511;-76
2021/09/24 08:32:28;;;;;;;;;10.33;9.67;;;;;18.97;66.51;101626.78;4986313;28;45490;-76
2021/09/24 08:34:53;;;;;;;;;12.33;9.00;;;;;19.15;66.07;101626.56;5009349;28;45781;-79
2021/09/24 08:37:19;;;;;;;;;12.67;12.00;;;;;19.27;65.64;101626.41;5007899;28;45724;-78
2021/09/24 08:39:45;;;;;;;;;11.00;10.33;;;;;19.44;65.05;101636.94;5006011;28;46020;-77
2021/09/24 08:42:10;;;;;;;;;11.00;10.00;;;;;19.50;64.78;101626.13;5008086;28;45569;-76
2021/09/24 08:44:36;;;;;;;;;15.67;13.33;;;;;19.63;65.09;101629.56;4988761;28;45362;-74
2021/09/24 08:47:01;;;;;;;;;19.67;12.00;;;;;19.66;64.77;101629.53;4990480;28;46377;-77
2021/09/24 08:49:26;;;;;;;;;8.00;8.00;;;;;19.65;64.17;101627.72;5006691;28;45416;-78
2021/09/24 08:51:52;;;;;;;;;13.00;10.00;;;;;19.62;64.75;101628.69;5006967;28;45524;-79
2021/09/24 08:54:18;;;;;;;;;11.67;10.33;;;;;19.61;64.08;101626.91;5006177;28;45494;-78
2021/09/24 08:56:43;;;;;;;;;9.00;8.00;;;;;19.65;63.21;101641.13;4981262;28;47520;-78
2021/09/24 08:59:09;;;;;;;;;12.33;9.67;;;;;19.71;63.43;101642.84;5005805;28;45820;-78
2021/09/24 09:01:34;;;;;;;;;11.00;9.67;;;;;19.78;63.49;101640.06;5006633;28;45907;-76
2021/09/24 09:03:59;;;;;;;;;10.00;7.67;;;;;19.85;62.97;101636.38;5006429;28;45615;-78
2021/09/24 09:06:27;;;;;;;;;10.00;9.00;;;;;19.92;63.41;101636.28;5003752;28;45608;-76
2021/09/24 09:09:01;;;;;;;;;9.00;7.67;;;;;20.02;62.85;101632.56;5009405;28;45687;-76
2021/09/24 09:11:26;;;;;;;;;14.33;11.00;;;;;20.12;63.26;101636.88;4984599;28;45511;-76
2021/09/24 09:13:53;;;;;;;;;11.00;9.67;;;;;20.18;61.74;101641.25;4986190;28;45607;-75
2021/09/24 09:16:29;;;;;;;;;8.67;8.33;;;;;20.18;62.06;101638.56;5007234;28;46740;-76
2021/09/24 09:19:11;;;;;;;;;10.67;8.67;;;;;20.21;62.01;101643.91;5005677;28;45524;-78
2021/09/24 09:21:38;;;;;;;;;10.33;9.67;;;;;20.22;61.10;101645.66;5001796;28;45445;-76
2021/09/24 09:24:22;;;;;;;;;10.33;10.33;;;;;20.16;61.52;101627.88;5004812;28;45543;-76
2021/09/24 09:26:47;;;;;;;;;11.00;10.33;;;;;20.23;61.41;101639.38;5001941;28;47529;-77
2021/09/24 09:29:13;;;;;;;;;8.67;8.00;;;;;20.28;61.30;101635.72;4992344;28;45482;-76
2021/09/24 09:31:39;;;;;;;;;10.33;10.33;;;;;20.42;60.93;101636.38;5000948;28;45387;-75
2021/09/24 09:34:06;;;;;;;;;12.67;10.00;;;;;20.53;60.57;101629.97;4994141;28;45477;-76
2021/09/24 09:36:37;;;;;;;;;8.33;8.33;;;;;20.62;61.17;101629.84;5010846;28;45979;-78
2021/09/24 09:39:09;;;;;;;;;12.33;9.67;;;;;20.77;60.74;101625.97;5012575;28;45452;-76
2021/09/24 09:41:34;;;;;;;;;10.00;8.00;;;;;20.82;60.28;101637.50;5009426;28;45503;-76
2021/09/24 09:44:00;;;;;;;;;10.33;7.33;;;;;20.80;59.39;101626.81;5014312;28;45500;-76
2021/09/24 09:46:30;;;;;;;;;11.67;9.67;;;;;20.80;58.64;101628.59;5014260;28;46474;-76
2021/09/24 09:49:11;;;;;;;;;11.33;11.33;;;;;20.80;58.22;101623.22;5011983;28;46103;-77
2021/09/24 09:51:41;;;;;;;;;10.33;9.00;;;;;20.83;59.62;101623.19;5009465;28;45530;-77
2021/09/24 09:54:08;;;;;;;;;11.33;9.33;;;;;20.84;59.34;101628.53;5010977;28;45475;-77
2021/09/24 09:56:37;;;;;;;;;9.00;9.00;;;;;20.85;59.61;101615.97;4992466;28;45846;-76
2021/09/24 09:59:21;;;;;;;;;9.33;8.00;;;;;20.96;59.31;101619.34;4994629;28;45555;-76
2021/09/24 10:01:46;;;;;;;;;8.67;7.67;;;;;21.04;59.70;101627.22;5010822;28;45533;-76
2021/09/24 10:04:12;;;;;;;;;7.67;7.67;;;;;21.07;59.13;101627.19;5010837;28;45366;-76
2021/09/24 10:06:40;;;;;;;;;12.33;8.67;;;;;21.07;58.06;101622.69;5009750;28;56173;-77
2021/09/24 10:09:06;;;;;;;;;12.67;11.00;;;;;21.05;57.74;101616.47;5010776;28;45543;-79
2021/09/24 10:11:38;;;;;;;;;13.00;11.67;;;;;21.07;58.26;101611.94;5013155;28;45535;-77
2021/09/24 10:14:11;;;;;;;;;9.67;8.67;;;;;21.10;58.52;101613.72;5015265;28;45613;-77
2021/09/24 10:16:43;;;;;;;;;13.33;12.67;;;;;21.13;58.75;101617.19;5009217;28;47467;-81
2021/09/24 10:19:09;;;;;;;;;15.00;9.00;;;;;21.10;57.41;101624.44;4991967;28;46499;-80
2021/09/24 10:21:34;;;;;;;;;9.33;9.00;;;;;21.01;58.73;101619.25;5011841;28;45464;-77
2021/09/24 10:24:00;;;;;;;;;9.67;9.67;;;;;20.93;58.94;101625.66;5000416;28;45444;-76
2021/09/24 10:26:30;;;;;;;;;11.67;8.00;;;;;20.89;59.62;101620.38;5008189;28;47331;-77
2021/09/24 10:29:03;;;;;;;;;12.33;9.00;;;;;20.86;59.27;101615.06;5009324;28;45321;-78
2021/09/24 10:31:29;;;;;;;;;13.33;11.67;;;;;20.80;59.68;101604.44;5006709;28;45539;-80
2021/09/24 10:33:58;;;;;;;;;10.00;10.00;;;;;20.79;59.64;101611.63;4974032;28;45396;-80
2021/09/24 10:36:36;;;;;;;;;13.33;12.00;;;;;20.70;59.61;101605.53;5004866;28;47771;-78
2021/09/24 10:39:01;;;;;;;;;11.33;11.33;;;;;20.62;59.01;101605.69;5010713;28;45637;-80
2021/09/24 10:41:27;;;;;;;;;12.00;12.00;;;;;20.63;59.17;101619.06;5005340;28;45455;-78
2021/09/24 10:43:54;;;;;;;;;9.00;9.00;;;;;20.63;58.70;101621.75;5011315;28;45445;-78
2021/09/24 10:46:33;;;;;;;;;10.00;8.67;;;;;20.66;59.02;101610.06;5001893;28;47873;-76
2021/09/24 10:49:18;;;;;;;;;14.00;9.33;;;;;20.78;59.00;101615.22;5011738;28;45554;-76
2021/09/24 10:51:45;;;;;;;;;7.00;7.00;;;;;20.89;58.97;101607.84;5010151;28;45543;-77
2021/09/24 10:54:22;;;;;;;;;12.00;8.67;;;;;20.97;58.27;101598.75;5008857;28;45506;-73
2021/09/24 10:57:01;;;;;;;;;13.67;12.00;;;;;21.00;58.07;101587.97;4991691;28;47629;-73
2021/09/24 10:59:29;;;;;;;;;11.33;8.00;;;;;21.13;58.06;101600.19;4990282;28;45509;-73
2021/09/24 11:01:55;;;;;;;;;10.00;8.67;;;;;21.23;58.04;101603.59;5013532;28;45627;-74
2021/09/24 11:04:21;;;;;;;;;7.00;6.00;;;;;21.31;57.19;101602.56;4987697;28;45616;-76
2021/09/24 11:06:48;;;;;;;;;9.67;9.67;;;;;21.38;57.34;101593.44;4979176;28;45674;-76
2021/09/24 11:09:18;;;;;;;;;11.00;8.00;;;;;21.47;57.17;101591.47;5008485;28;45531;-76
2021/09/24 11:12:03;;;;;;;;;11.00;9.67;;;;;21.49;57.30;101589.63;5009156;28;45305;-76
2021/09/24 11:14:34;;;;;;;;;7.00;7.00;;;;;21.48;56.99;101586.06;5009824;28;45583;-76
2021/09/24 11:17:00;;;;;;;;;7.00;7.00;;;;;21.58;57.49;101579.56;5007001;28;45632;-77